Terminal Aerodrome Forecast
Issued by NWS

Home | Current Version | Previous Version | Graphics & Text | Print | Product List | Glossary On
Versions: 1 2 3 4 5 6 7 8 9 10 11 12 13 14 15 16 17 18 19 20
000
FTUS43 KICT 251734 CCA
TAFSLN
TAF COR
KSLN 251734Z 2518/2618 17010KT P6SM SCT015 OVC025
      TEMPO 2518/2519 BKN015
     FM251930 17012KT P6SM BKN035
     FM260000 VRB05KT P6SM VCTS BKN040CB
     FM260500 VRB05KT P6SM BKN040
     FM260800 09010KT P6SM OVC015
      TEMPO 2610/2614 OVC008=

USA.gov is the U.S. government's official web portal to all federal, state and local government web resources and services.